sensor_id;sensor_type;location;lat;lon;timestamp;temperature;humidity
45983;DHT22;31711;47.158;7.346;2024-02-26T00:02:05;6.60;99.90
45983;DHT22;31711;47.158;7.346;2024-02-26T00:04:32;6.60;99.90
45983;DHT22;31711;47.158;7.346;2024-02-26T00:06:58;6.60;99.90
45983;DHT22;31711;47.158;7.346;2024-02-26T00:09:24;6.50;99.90
45983;DHT22;31711;47.158;7.346;2024-02-26T00:11:50;6.60;99.90
45983;DHT22;31711;47.158;7.346;2024-02-26T00:14:16;6.60;99.90
45983;DHT22;31711;47.158;7.346;2024-02-26T00:16:42;6.60;99.90
45983;DHT22;31711;47.158;7.346;2024-02-26T00:19:08;6.60;99.90
45983;DHT22;31711;47.158;7.346;2024-02-26T00:21:34;6.60;99.90
45983;DHT22;31711;47.158;7.346;2024-02-26T00:24:00;6.60;99.90
45983;DHT22;31711;47.158;7.346;2024-02-26T00:26:26;6.60;99.90
45983;DHT22;31711;47.158;7.346;2024-02-26T00:28:52;6.70;99.90
45983;DHT22;31711;47.158;7.346;2024-02-26T00:31:18;6.70;99.90
45983;DHT22;31711;47.158;7.346;2024-02-26T00:33:44;6.80;99.90
45983;DHT22;31711;47.158;7.346;2024-02-26T00:36:10;6.80;99.90
45983;DHT22;31711;47.158;7.346;2024-02-26T00:38:36;6.90;99.90
45983;DHT22;31711;47.158;7.346;2024-02-26T00:41:02;6.90;99.90
45983;DHT22;31711;47.158;7.346;2024-02-26T00:43:28;6.90;99.90
45983;DHT22;31711;47.158;7.346;2024-02-26T00:45:54;6.90;99.90
45983;DHT22;31711;47.158;7.346;2024-02-26T00:48:20;6.90;99.90
45983;DHT22;31711;47.158;7.346;2024-02-26T00:50:46;6.90;99.90
45983;DHT22;31711;47.158;7.346;2024-02-26T00:53:11;6.90;99.90
45983;DHT22;31711;47.158;7.346;2024-02-26T00:55:37;7.00;99.90
45983;DHT22;31711;47.158;7.346;2024-02-26T00:58:04;6.90;99.90
45983;DHT22;31711;47.158;7.346;2024-02-26T01:00:29;6.90;99.90
45983;DHT22;31711;47.158;7.346;2024-02-26T01:02:56;6.90;99.90
45983;DHT22;31711;47.158;7.346;2024-02-26T01:05:22;6.90;99.90
45983;DHT22;31711;47.158;7.346;2024-02-26T01:07:48;6.90;99.90
45983;DHT22;31711;47.158;7.346;2024-02-26T01:10:14;6.90;99.90
45983;DHT22;31711;47.158;7.346;2024-02-26T01:12:40;6.90;99.90
45983;DHT22;31711;47.158;7.346;2024-02-26T01:15:06;6.90;99.90
45983;DHT22;31711;47.158;7.346;2024-02-26T01:17:32;6.90;99.90
45983;DHT22;31711;47.158;7.346;2024-02-26T01:19:58;6.90;99.90
45983;DHT22;31711;47.158;7.346;2024-02-26T01:22:24;7.00;99.90
45983;DHT22;31711;47.158;7.346;2024-02-26T01:24:50;7.00;99.90
45983;DHT22;31711;47.158;7.346;2024-02-26T01:27:16;6.90;99.90
45983;DHT22;31711;47.158;7.346;2024-02-26T01:29:42;6.90;99.90
45983;DHT22;31711;47.158;7.346;2024-02-26T01:32:08;6.90;99.90
45983;DHT22;31711;47.158;7.346;2024-02-26T01:34:34;6.90;99.90
45983;DHT22;31711;47.158;7.346;2024-02-26T01:37:02;6.80;99.90
45983;DHT22;31711;47.158;7.346;2024-02-26T01:39:28;6.80;99.90
45983;DHT22;31711;47.158;7.346;2024-02-26T01:41:57;6.80;99.90
45983;DHT22;31711;47.158;7.346;2024-02-26T01:44:23;6.70;99.90
45983;DHT22;31711;47.158;7.346;2024-02-26T01:46:49;6.60;99.90
45983;DHT22;31711;47.158;7.346;2024-02-26T01:49:15;6.60;99.90
45983;DHT22;31711;47.158;7.346;2024-02-26T01:51:43;6.60;99.90
45983;DHT22;31711;47.158;7.346;2024-02-26T01:54:10;6.70;99.90
45983;DHT22;31711;47.158;7.346;2024-02-26T01:56:37;6.60;99.90
45983;DHT22;31711;47.158;7.346;2024-02-26T01:59:05;6.50;99.90
45983;DHT22;31711;47.158;7.346;2024-02-26T02:01:33;6.50;99.90
45983;DHT22;31711;47.158;7.346;2024-02-26T02:04:00;6.50;99.90
45983;DHT22;31711;47.158;7.346;2024-02-26T02:06:28;6.60;99.90
45983;DHT22;31711;47.158;7.346;2024-02-26T02:08:57;6.50;99.90
45983;DHT22;31711;47.158;7.346;2024-02-26T02:11:23;6.50;99.90
45983;DHT22;31711;47.158;7.346;2024-02-26T02:13:49;6.50;99.90
45983;DHT22;31711;47.158;7.346;2024-02-26T02:16:16;6.50;99.90
45983;DHT22;31711;47.158;7.346;2024-02-26T02:18:42;6.40;99.90
45983;DHT22;31711;47.158;7.346;2024-02-26T02:21:07;6.40;99.90
45983;DHT22;31711;47.158;7.346;2024-02-26T02:23:33;6.40;99.90
45983;DHT22;31711;47.158;7.346;2024-02-26T02:25:59;6.40;99.90
45983;DHT22;31711;47.158;7.346;2024-02-26T02:28:26;6.40;99.90
45983;DHT22;31711;47.158;7.346;2024-02-26T02:30:53;6.30;99.90
45983;DHT22;31711;47.158;7.346;2024-02-26T02:33:20;6.30;99.90
45983;DHT22;31711;47.158;7.346;2024-02-26T02:35:47;6.30;99.90
45983;DHT22;31711;47.158;7.346;2024-02-26T02:38:14;6.20;99.90
45983;DHT22;31711;47.158;7.346;2024-02-26T02:40:40;6.20;99.90
45983;DHT22;31711;47.158;7.346;2024-02-26T02:43:06;6.20;99.90
45983;DHT22;31711;47.158;7.346;2024-02-26T02:45:32;6.30;99.90
45983;DHT22;31711;47.158;7.346;2024-02-26T02:47:58;6.20;99.90
45983;DHT22;31711;47.158;7.346;2024-02-26T02:50:23;6.10;99.90
45983;DHT22;31711;47.158;7.346;2024-02-26T02:52:49;6.10;99.90
45983;DHT22;31711;47.158;7.346;2024-02-26T02:55:16;6.20;99.90
45983;DHT22;31711;47.158;7.346;2024-02-26T02:57:42;6.10;99.90
45983;DHT22;31711;47.158;7.346;2024-02-26T03:00:09;6.10;99.90
45983;DHT22;31711;47.158;7.346;2024-02-26T03:02:36;6.00;99.90
45983;DHT22;31711;47.158;7.346;2024-02-26T03:05:05;6.00;99.90
45983;DHT22;31711;47.158;7.346;2024-02-26T03:07:31;5.90;99.90
45983;DHT22;31711;47.158;7.346;2024-02-26T03:09:57;5.90;99.90
45983;DHT22;31711;47.158;7.346;2024-02-26T03:12:23;5.90;99.90
45983;DHT22;31711;47.158;7.346;2024-02-26T03:14:49;5.90;99.90
45983;DHT22;31711;47.158;7.346;2024-02-26T03:17:16;5.90;99.90
45983;DHT22;31711;47.158;7.346;2024-02-26T03:19:43;5.90;99.90
45983;DHT22;31711;47.158;7.346;2024-02-26T03:22:11;5.90;99.90
45983;DHT22;31711;47.158;7.346;2024-02-26T03:24:37;5.80;99.90
45983;DHT22;31711;47.158;7.346;2024-02-26T03:27:03;5.80;99.90
45983;DHT22;31711;47.158;7.346;2024-02-26T03:29:30;5.80;99.90
45983;DHT22;31711;47.158;7.346;2024-02-26T03:31:56;5.80;99.90
45983;DHT22;31711;47.158;7.346;2024-02-26T03:34:22;5.80;99.90
45983;DHT22;31711;47.158;7.346;2024-02-26T03:36:48;5.80;99.90
45983;DHT22;31711;47.158;7.346;2024-02-26T03:39:14;5.80;99.90
45983;DHT22;31711;47.158;7.346;2024-02-26T03:41:40;5.80;99.90
45983;DHT22;31711;47.158;7.346;2024-02-26T03:44:06;5.80;99.90
45983;DHT22;31711;47.158;7.346;2024-02-26T03:46:32;5.90;99.90
45983;DHT22;31711;47.158;7.346;2024-02-26T03:48:58;5.80;99.90
45983;DHT22;31711;47.158;7.346;2024-02-26T03:51:24;5.80;99.90
45983;DHT22;31711;47.158;7.346;2024-02-26T03:53:50;5.80;99.90
45983;DHT22;31711;47.158;7.346;2024-02-26T03:56:16;5.80;99.90
45983;DHT22;31711;47.158;7.346;2024-02-26T03:58:42;5.80;99.90
45983;DHT22;31711;47.158;7.346;2024-02-26T04:01:08;5.80;99.90
45983;DHT22;31711;47.158;7.346;2024-02-26T04:03:35;5.90;99.90
45983;DHT22;31711;47.158;7.346;2024-02-26T04:06:02;5.90;99.90
45983;DHT22;31711;47.158;7.346;2024-02-26T04:08:28;5.90;99.90
45983;DHT22;31711;47.158;7.346;2024-02-26T04:10:54;5.90;99.90
45983;DHT22;31711;47.158;7.346;2024-02-26T04:13:20;5.90;99.90
45983;DHT22;31711;47.158;7.346;2024-02-26T04:15:46;5.90;99.90
45983;DHT22;31711;47.158;7.346;2024-02-26T04:18:12;6.00;99.90
45983;DHT22;31711;47.158;7.346;2024-02-26T04:20:39;6.00;99.90
45983;DHT22;31711;47.158;7.346;2024-02-26T04:23:08;6.00;99.90
45983;DHT22;31711;47.158;7.346;2024-02-26T04:25:34;6.00;99.90
45983;DHT22;31711;47.158;7.346;2024-02-26T04:28:00;6.00;99.90
45983;DHT22;31711;47.158;7.346;2024-02-26T04:30:26;6.00;99.90
45983;DHT22;31711;47.158;7.346;2024-02-26T04:32:52;6.00;99.90
45983;DHT22;31711;47.158;7.346;2024-02-26T04:35:17;6.00;99.90
45983;DHT22;31711;47.158;7.346;2024-02-26T04:37:43;6.00;99.90
45983;DHT22;31711;47.158;7.346;2024-02-26T04:40:10;6.00;99.90
45983;DHT22;31711;47.158;7.346;2024-02-26T04:42:36;6.00;99.90
45983;DHT22;31711;47.158;7.346;2024-02-26T04:45:02;6.00;99.90
45983;DHT22;31711;47.158;7.346;2024-02-26T04:47:28;6.00;99.90
45983;DHT22;31711;47.158;7.346;2024-02-26T04:49:55;6.00;99.90
45983;DHT22;31711;47.158;7.346;2024-02-26T04:52:21;6.00;99.90
45983;DHT22;31711;47.158;7.346;2024-02-26T04:54:47;6.00;99.90
45983;DHT22;31711;47.158;7.346;2024-02-26T04:57:13;6.00;99.90
45983;DHT22;31711;47.158;7.346;2024-02-26T04:59:39;6.00;99.90
45983;DHT22;31711;47.158;7.346;2024-02-26T05:02:06;6.10;99.90
45983;DHT22;31711;47.158;7.346;2024-02-26T05:04:32;6.10;99.90
45983;DHT22;31711;47.158;7.346;2024-02-26T05:06:58;6.00;99.90
45983;DHT22;31711;47.158;7.346;2024-02-26T05:09:24;6.00;99.90
45983;DHT22;31711;47.158;7.346;2024-02-26T05:11:50;6.00;99.90
45983;DHT22;31711;47.158;7.346;2024-02-26T05:14:16;6.00;99.90
45983;DHT22;31711;47.158;7.346;2024-02-26T05:16:42;6.00;99.90
45983;DHT22;31711;47.158;7.346;2024-02-26T05:19:08;6.00;99.90
45983;DHT22;31711;47.158;7.346;2024-02-26T05:21:34;6.10;99.90
45983;DHT22;31711;47.158;7.346;2024-02-26T05:24:00;6.00;99.90
45983;DHT22;31711;47.158;7.346;2024-02-26T05:26:26;6.00;99.90
45983;DHT22;31711;47.158;7.346;2024-02-26T05:28:52;6.00;99.90
45983;DHT22;31711;47.158;7.346;2024-02-26T05:31:19;6.00;99.90
45983;DHT22;31711;47.158;7.346;2024-02-26T05:33:45;6.00;99.90
45983;DHT22;31711;47.158;7.346;2024-02-26T05:36:18;6.10;99.90
45983;DHT22;31711;47.158;7.346;2024-02-26T05:38:44;6.10;99.90
45983;DHT22;31711;47.158;7.346;2024-02-26T05:41:12;6.00;99.90
45983;DHT22;31711;47.158;7.346;2024-02-26T05:43:38;6.10;99.90
45983;DHT22;31711;47.158;7.346;2024-02-26T05:46:04;5.90;99.90
45983;DHT22;31711;47.158;7.346;2024-02-26T05:48:30;5.80;99.90
45983;DHT22;31711;47.158;7.346;2024-02-26T05:50:57;5.90;99.90
45983;DHT22;31711;47.158;7.346;2024-02-26T05:53:23;5.80;99.90
45983;DHT22;31711;47.158;7.346;2024-02-26T05:55:49;5.70;99.90
45983;DHT22;31711;47.158;7.346;2024-02-26T05:58:15;5.70;99.90
45983;DHT22;31711;47.158;7.346;2024-02-26T06:00:41;5.70;99.90
45983;DHT22;31711;47.158;7.346;2024-02-26T06:03:07;5.80;99.90
45983;DHT22;31711;47.158;7.346;2024-02-26T06:05:33;5.80;99.90
45983;DHT22;31711;47.158;7.346;2024-02-26T06:07:59;5.70;99.90
45983;DHT22;31711;47.158;7.346;2024-02-26T06:10:25;5.70;99.90
45983;DHT22;31711;47.158;7.346;2024-02-26T06:12:51;5.70;99.90
45983;DHT22;31711;47.158;7.346;2024-02-26T06:15:17;5.70;99.90
45983;DHT22;31711;47.158;7.346;2024-02-26T06:17:43;5.70;99.90
45983;DHT22;31711;47.158;7.346;2024-02-26T06:20:09;5.60;99.90
45983;DHT22;31711;47.158;7.346;2024-02-26T06:22:40;5.60;99.90
45983;DHT22;31711;47.158;7.346;2024-02-26T06:25:07;5.50;99.90
45983;DHT22;31711;47.158;7.346;2024-02-26T06:27:33;5.60;99.90
45983;DHT22;31711;47.158;7.346;2024-02-26T06:29:59;5.60;99.90
45983;DHT22;31711;47.158;7.346;2024-02-26T06:32:25;5.70;99.90
45983;DHT22;31711;47.158;7.346;2024-02-26T06:34:53;5.60;99.90
45983;DHT22;31711;47.158;7.346;2024-02-26T06:37:19;5.60;99.90
45983;DHT22;31711;47.158;7.346;2024-02-26T06:39:45;5.70;99.90
45983;DHT22;31711;47.158;7.346;2024-02-26T06:42:11;5.70;99.90
45983;DHT22;31711;47.158;7.346;2024-02-26T06:44:37;5.70;99.90
45983;DHT22;31711;47.158;7.346;2024-02-26T06:47:04;5.70;99.90
45983;DHT22;31711;47.158;7.346;2024-02-26T06:49:30;5.80;99.90
45983;DHT22;31711;47.158;7.346;2024-02-26T06:51:55;5.80;99.90
45983;DHT22;31711;47.158;7.346;2024-02-26T06:54:21;5.80;99.90
45983;DHT22;31711;47.158;7.346;2024-02-26T06:56:47;5.90;99.90
45983;DHT22;31711;47.158;7.346;2024-02-26T06:59:14;5.90;99.90
45983;DHT22;31711;47.158;7.346;2024-02-26T07:01:43;5.90;99.90
45983;DHT22;31711;47.158;7.346;2024-02-26T07:04:09;5.90;99.90
45983;DHT22;31711;47.158;7.346;2024-02-26T07:06:37;5.90;99.90
45983;DHT22;31711;47.158;7.346;2024-02-26T07:09:03;5.90;99.90
45983;DHT22;31711;47.158;7.346;2024-02-26T07:11:29;5.90;99.90
45983;DHT22;31711;47.158;7.346;2024-02-26T07:13:54;6.00;99.90
45983;DHT22;31711;47.158;7.346;2024-02-26T07:16:20;6.20;99.90
45983;DHT22;31711;47.158;7.346;2024-02-26T07:18:46;6.20;99.90
45983;DHT22;31711;47.158;7.346;2024-02-26T07:21:12;6.10;99.90
45983;DHT22;31711;47.158;7.346;2024-02-26T07:23:38;6.10;99.90
45983;DHT22;31711;47.158;7.346;2024-02-26T07:26:04;6.20;99.90
45983;DHT22;31711;47.158;7.346;2024-02-26T07:28:31;6.40;99.90
45983;DHT22;31711;47.158;7.346;2024-02-26T07:30:57;6.50;99.90
45983;DHT22;31711;47.158;7.346;2024-02-26T07:33:23;6.50;99.90
45983;DHT22;31711;47.158;7.346;2024-02-26T07:35:49;6.60;99.90
45983;DHT22;31711;47.158;7.346;2024-02-26T07:38:15;6.60;99.90
45983;DHT22;31711;47.158;7.346;2024-02-26T07:40:41;6.70;99.90
45983;DHT22;31711;47.158;7.346;2024-02-26T07:43:07;6.50;99.90
45983;DHT22;31711;47.158;7.346;2024-02-26T07:45:33;6.40;99.90
45983;DHT22;31711;47.158;7.346;2024-02-26T07:47:59;6.50;99.90
45983;DHT22;31711;47.158;7.346;2024-02-26T07:50:25;6.60;99.90
45983;DHT22;31711;47.158;7.346;2024-02-26T07:52:51;6.60;99.90
45983;DHT22;31711;47.158;7.346;2024-02-26T07:55:18;6.60;99.90
45983;DHT22;31711;47.158;7.346;2024-02-26T07:57:45;6.60;99.90
45983;DHT22;31711;47.158;7.346;2024-02-26T08:00:11;6.70;99.90
45983;DHT22;31711;47.158;7.346;2024-02-26T08:02:37;6.60;99.90
45983;DHT22;31711;47.158;7.346;2024-02-26T08:05:03;6.60;99.90
45983;DHT22;31711;47.158;7.346;2024-02-26T08:07:30;6.70;99.90
45983;DHT22;31711;47.158;7.346;2024-02-26T08:09:56;6.70;99.90
45983;DHT22;31711;47.158;7.346;2024-02-26T08:12:22;6.60;99.90
45983;DHT22;31711;47.158;7.346;2024-02-26T08:14:48;6.60;99.90
45983;DHT22;31711;47.158;7.346;2024-02-26T08:17:14;6.50;99.90
45983;DHT22;31711;47.158;7.346;2024-02-26T08:19:40;6.60;99.90
45983;DHT22;31711;47.158;7.346;2024-02-26T08:22:06;6.70;99.90
45983;DHT22;31711;47.158;7.346;2024-02-26T08:24:32;6.80;99.90
45983;DHT22;31711;47.158;7.346;2024-02-26T08:26:57;7.00;99.90
45983;DHT22;31711;47.158;7.346;2024-02-26T08:29:23;7.10;99.90
45983;DHT22;31711;47.158;7.346;2024-02-26T08:31:49;7.30;99.90
45983;DHT22;31711;47.158;7.346;2024-02-26T08:34:15;7.40;99.90
45983;DHT22;31711;47.158;7.346;2024-02-26T08:36:41;7.60;99.90
45983;DHT22;31711;47.158;7.346;2024-02-26T08:39:09;7.70;99.90
45983;DHT22;31711;47.158;7.346;2024-02-26T08:41:36;7.90;99.90
45983;DHT22;31711;47.158;7.346;2024-02-26T08:44:01;8.10;99.90
45983;DHT22;31711;47.158;7.346;2024-02-26T08:46:27;8.10;99.90
45983;DHT22;31711;47.158;7.346;2024-02-26T08:48:53;8.20;99.90
45983;DHT22;31711;47.158;7.346;2024-02-26T08:51:19;8.10;99.90
45983;DHT22;31711;47.158;7.346;2024-02-26T08:53:45;8.20;99.90
45983;DHT22;31711;47.158;7.346;2024-02-26T08:56:12;8.30;99.90
45983;DHT22;31711;47.158;7.346;2024-02-26T08:58:43;8.40;99.90
45983;DHT22;31711;47.158;7.346;2024-02-26T09:01:09;8.60;99.90
45983;DHT22;31711;47.158;7.346;2024-02-26T09:03:35;8.80;99.90
45983;DHT22;31711;47.158;7.346;2024-02-26T09:06:01;9.00;99.90
45983;DHT22;31711;47.158;7.346;2024-02-26T09:08:27;9.10;99.90
45983;DHT22;31711;47.158;7.346;2024-02-26T09:10:53;9.20;99.90
45983;DHT22;31711;47.158;7.346;2024-02-26T09:13:19;9.20;99.90
45983;DHT22;31711;47.158;7.346;2024-02-26T09:15:45;9.30;99.90
45983;DHT22;31711;47.158;7.346;2024-02-26T09:18:11;9.40;99.90
45983;DHT22;31711;47.158;7.346;2024-02-26T09:20:37;9.40;99.90
45983;DHT22;31711;47.158;7.346;2024-02-26T09:23:04;9.50;99.90
45983;DHT22;31711;47.158;7.346;2024-02-26T09:25:30;9.40;99.90
45983;DHT22;31711;47.158;7.346;2024-02-26T09:27:56;9.50;99.90
45983;DHT22;31711;47.158;7.346;2024-02-26T09:30:22;9.50;99.90
45983;DHT22;31711;47.158;7.346;2024-02-26T09:32:48;9.50;99.90
45983;DHT22;31711;47.158;7.346;2024-02-26T09:35:14;9.50;99.90
45983;DHT22;31711;47.158;7.346;2024-02-26T09:37:40;9.70;99.90
45983;DHT22;31711;47.158;7.346;2024-02-26T09:40:06;9.70;99.90
45983;DHT22;31711;47.158;7.346;2024-02-26T09:42:34;9.80;99.90
45983;DHT22;31711;47.158;7.346;2024-02-26T09:45:05;9.80;99.90
45983;DHT22;31711;47.158;7.346;2024-02-26T09:47:35;9.80;99.90
45983;DHT22;31711;47.158;7.346;2024-02-26T09:50:02;9.80;99.90
45983;DHT22;31711;47.158;7.346;2024-02-26T09:52:31;9.90;99.90
45983;DHT22;31711;47.158;7.346;2024-02-26T09:54:59;10.00;99.90
45983;DHT22;31711;47.158;7.346;2024-02-26T09:57:25;10.00;99.90
45983;DHT22;31711;47.158;7.346;2024-02-26T09:59:53;10.00;99.90
45983;DHT22;31711;47.158;7.346;2024-02-26T10:02:22;10.10;99.90
45983;DHT22;31711;47.158;7.346;2024-02-26T10:04:48;10.20;99.90
45983;DHT22;31711;47.158;7.346;2024-02-26T10:07:16;10.10;99.90
45983;DHT22;31711;47.158;7.346;2024-02-26T10:09:42;10.20;99.90
45983;DHT22;31711;47.158;7.346;2024-02-26T10:12:12;10.30;99.90
45983;DHT22;31711;47.158;7.346;2024-02-26T10:14:38;10.40;99.90
45983;DHT22;31711;47.158;7.346;2024-02-26T10:17:07;10.60;99.90
45983;DHT22;31711;47.158;7.346;2024-02-26T10:19:34;10.60;99.90
45983;DHT22;31711;47.158;7.346;2024-02-26T10:22:01;10.60;99.90
45983;DHT22;31711;47.158;7.346;2024-02-26T10:24:30;10.70;99.90
45983;DHT22;31711;47.158;7.346;2024-02-26T10:26:57;10.80;99.90
45983;DHT22;31711;47.158;7.346;2024-02-26T10:29:25;10.60;99.90
45983;DHT22;31711;47.158;7.346;2024-02-26T10:31:51;10.90;99.90
45983;DHT22;31711;47.158;7.346;2024-02-26T10:34:18;11.00;99.90
45983;DHT22;31711;47.158;7.346;2024-02-26T10:36:44;11.20;99.90
45983;DHT22;31711;47.158;7.346;2024-02-26T10:39:13;11.10;99.90
45983;DHT22;31711;47.158;7.346;2024-02-26T10:41:44;11.10;99.90
45983;DHT22;31711;47.158;7.346;2024-02-26T10:44:11;11.40;99.90
45983;DHT22;31711;47.158;7.346;2024-02-26T10:46:41;11.50;99.90
45983;DHT22;31711;47.158;7.346;2024-02-26T10:49:14;11.40;99.90
45983;DHT22;31711;47.158;7.346;2024-02-26T10:51:44;11.40;99.90
45983;DHT22;31711;47.158;7.346;2024-02-26T10:54:15;11.30;99.90
45983;DHT22;31711;47.158;7.346;2024-02-26T10:56:42;11.30;99.90
45983;DHT22;31711;47.158;7.346;2024-02-26T10:59:12;10.80;99.90
45983;DHT22;31711;47.158;7.346;2024-02-26T11:01:39;10.80;99.90
45983;DHT22;31711;47.158;7.346;2024-02-26T11:04:09;11.20;99.90
45983;DHT22;31711;47.158;7.346;2024-02-26T11:06:36;11.40;99.90
45983;DHT22;31711;47.158;7.346;2024-02-26T11:09:03;11.40;99.90
45983;DHT22;31711;47.158;7.346;2024-02-26T11:11:31;11.40;99.90
45983;DHT22;31711;47.158;7.346;2024-02-26T11:13:57;11.10;99.90
45983;DHT22;31711;47.158;7.346;2024-02-26T11:16:26;11.10;99.90
45983;DHT22;31711;47.158;7.346;2024-02-26T11:18:53;11.30;99.90
45983;DHT22;31711;47.158;7.346;2024-02-26T11:21:21;11.10;99.90
45983;DHT22;31711;47.158;7.346;2024-02-26T11:23:56;11.40;99.90
45983;DHT22;31711;47.158;7.346;2024-02-26T11:26:23;11.70;99.90
45983;DHT22;31711;47.158;7.346;2024-02-26T11:28:51;11.90;99.90
45983;DHT22;31711;47.158;7.346;2024-02-26T11:31:18;11.80;99.90
45983;DHT22;31711;47.158;7.346;2024-02-26T11:33:52;11.80;99.90
45983;DHT22;31711;47.158;7.346;2024-02-26T11:36:19;12.10;99.90
45983;DHT22;31711;47.158;7.346;2024-02-26T11:38:46;12.20;99.90
45983;DHT22;31711;47.158;7.346;2024-02-26T11:41:17;12.30;99.90
45983;DHT22;31711;47.158;7.346;2024-02-26T11:44:00;12.20;99.90
45983;DHT22;31711;47.158;7.346;2024-02-26T11:46:31;12.20;99.90
45983;DHT22;31711;47.158;7.346;2024-02-26T11:49:01;12.20;99.90
45983;DHT22;31711;47.158;7.346;2024-02-26T11:51:33;12.40;99.90
45983;DHT22;31711;47.158;7.346;2024-02-26T11:53:59;12.30;99.90
45983;DHT22;31711;47.158;7.346;2024-02-26T11:56:25;12.40;99.90
45983;DHT22;31711;47.158;7.346;2024-02-26T11:59:11;12.30;99.90
45983;DHT22;31711;47.158;7.346;2024-02-26T12:01:45;12.20;99.90
45983;DHT22;31711;47.158;7.346;2024-02-26T12:04:22;12.00;99.90
45983;DHT22;31711;47.158;7.346;2024-02-26T12:06:52;11.80;99.90
45983;DHT22;31711;47.158;7.346;2024-02-26T12:11:57;11.90;99.90
45983;DHT22;31711;47.158;7.346;2024-02-26T12:14:26;11.80;99.90
45983;DHT22;31711;47.158;7.346;2024-02-26T12:16:53;11.80;99.90
45983;DHT22;31711;47.158;7.346;2024-02-26T12:19:21;12.10;99.90
45983;DHT22;31711;47.158;7.346;2024-02-26T12:21:51;12.20;99.90
45983;DHT22;31711;47.158;7.346;2024-02-26T12:24:19;12.20;99.90
45983;DHT22;31711;47.158;7.346;2024-02-26T12:26:45;12.50;99.90
45983;DHT22;31711;47.158;7.346;2024-02-26T12:29:12;12.70;99.90
45983;DHT22;31711;47.158;7.346;2024-02-26T12:31:40;12.80;99.90
45983;DHT22;31711;47.158;7.346;2024-02-26T12:34:07;12.80;99.90
45983;DHT22;31711;47.158;7.346;2024-02-26T12:36:35;12.90;99.90
45983;DHT22;31711;47.158;7.346;2024-02-26T12:39:05;12.30;99.90
45983;DHT22;31711;47.158;7.346;2024-02-26T12:41:32;11.90;99.90
45983;DHT22;31711;47.158;7.346;2024-02-26T12:43:59;11.90;99.90
45983;DHT22;31711;47.158;7.346;2024-02-26T12:46:25;12.00;99.90
45983;DHT22;31711;47.158;7.346;2024-02-26T12:48:51;12.20;99.90
45983;DHT22;31711;47.158;7.346;2024-02-26T12:51:17;12.30;99.90
45983;DHT22;31711;47.158;7.346;2024-02-26T12:53:44;12.20;99.90
45983;DHT22;31711;47.158;7.346;2024-02-26T12:56:11;12.40;99.90
45983;DHT22;31711;47.158;7.346;2024-02-26T12:58:40;12.50;99.90
45983;DHT22;31711;47.158;7.346;2024-02-26T13:01:07;12.70;99.90
45983;DHT22;31711;47.158;7.346;2024-02-26T13:03:39;12.60;99.90
45983;DHT22;31711;47.158;7.346;2024-02-26T13:06:06;12.40;99.90
45983;DHT22;31711;47.158;7.346;2024-02-26T13:08:32;12.00;99.90
45983;DHT22;31711;47.158;7.346;2024-02-26T13:10:59;12.20;99.90
45983;DHT22;31711;47.158;7.346;2024-02-26T13:13:25;12.20;99.90
45983;DHT22;31711;47.158;7.346;2024-02-26T13:16:02;12.40;99.90
45983;DHT22;31711;47.158;7.346;2024-02-26T13:18:28;12.70;99.90
45983;DHT22;31711;47.158;7.346;2024-02-26T13:21:10;12.70;99.90
45983;DHT22;31711;47.158;7.346;2024-02-26T13:23:37;12.20;99.90
45983;DHT22;31711;47.158;7.346;2024-02-26T13:26:04;11.80;99.90
45983;DHT22;31711;47.158;7.346;2024-02-26T13:28:30;11.90;99.90
45983;DHT22;31711;47.158;7.346;2024-02-26T13:30:57;12.10;99.90
45983;DHT22;31711;47.158;7.346;2024-02-26T13:33:24;12.20;99.90
45983;DHT22;31711;47.158;7.346;2024-02-26T13:35:51;12.30;99.90
45983;DHT22;31711;47.158;7.346;2024-02-26T13:38:17;12.30;99.90
45983;DHT22;31711;47.158;7.346;2024-02-26T13:40:43;12.50;99.90
45983;DHT22;31711;47.158;7.346;2024-02-26T13:43:09;12.70;99.90
45983;DHT22;31711;47.158;7.346;2024-02-26T13:45:36;12.70;99.90
45983;DHT22;31711;47.158;7.346;2024-02-26T13:48:08;12.70;99.90
45983;DHT22;31711;47.158;7.346;2024-02-26T13:50:36;12.90;99.90
45983;DHT22;31711;47.158;7.346;2024-02-26T13:53:02;13.10;99.90
45983;DHT22;31711;47.158;7.346;2024-02-26T13:55:28;13.30;99.90
45983;DHT22;31711;47.158;7.346;2024-02-26T13:57:58;13.40;99.90
45983;DHT22;31711;47.158;7.346;2024-02-26T14:00:26;13.40;99.90
45983;DHT22;31711;47.158;7.346;2024-02-26T14:02:53;13.30;99.90
45983;DHT22;31711;47.158;7.346;2024-02-26T14:05:18;13.30;99.90
45983;DHT22;31711;47.158;7.346;2024-02-26T14:07:44;13.40;99.90
45983;DHT22;31711;47.158;7.346;2024-02-26T14:10:13;13.40;99.90
45983;DHT22;31711;47.158;7.346;2024-02-26T14:12:39;13.30;99.90
45983;DHT22;31711;47.158;7.346;2024-02-26T14:15:07;13.20;99.90
45983;DHT22;31711;47.158;7.346;2024-02-26T14:17:33;13.10;99.90
45983;DHT22;31711;47.158;7.346;2024-02-26T14:19:59;13.20;99.90
45983;DHT22;31711;47.158;7.346;2024-02-26T14:22:25;13.20;99.90
45983;DHT22;31711;47.158;7.346;2024-02-26T14:24:56;13.40;99.90
45983;DHT22;31711;47.158;7.346;2024-02-26T14:27:22;13.50;99.90
45983;DHT22;31711;47.158;7.346;2024-02-26T14:29:49;13.40;99.90
45983;DHT22;31711;47.158;7.346;2024-02-26T14:32:15;13.50;99.90
45983;DHT22;31711;47.158;7.346;2024-02-26T14:34:41;13.40;99.90
45983;DHT22;31711;47.158;7.346;2024-02-26T14:37:07;13.50;99.90
45983;DHT22;31711;47.158;7.346;2024-02-26T14:39:33;13.60;99.90
45983;DHT22;31711;47.158;7.346;2024-02-26T14:42:00;13.60;99.90
45983;DHT22;31711;47.158;7.346;2024-02-26T14:44:26;13.50;99.90
45983;DHT22;31711;47.158;7.346;2024-02-26T14:46:52;13.50;99.90
45983;DHT22;31711;47.158;7.346;2024-02-26T14:49:19;13.40;99.90
45983;DHT22;31711;47.158;7.346;2024-02-26T14:51:45;13.50;99.90
45983;DHT22;31711;47.158;7.346;2024-02-26T14:54:12;13.50;99.90
45983;DHT22;31711;47.158;7.346;2024-02-26T14:56:38;13.30;99.90
45983;DHT22;31711;47.158;7.346;2024-02-26T14:59:04;13.40;99.90
45983;DHT22;31711;47.158;7.346;2024-02-26T15:01:30;13.30;99.90
45983;DHT22;31711;47.158;7.346;2024-02-26T15:03:56;13.30;99.90
45983;DHT22;31711;47.158;7.346;2024-02-26T15:06:23;13.20;99.90
45983;DHT22;31711;47.158;7.346;2024-02-26T15:08:49;13.00;99.90
45983;DHT22;31711;47.158;7.346;2024-02-26T15:11:15;13.00;99.90
45983;DHT22;31711;47.158;7.346;2024-02-26T15:13:42;12.90;99.90
45983;DHT22;31711;47.158;7.346;2024-02-26T15:16:08;12.70;99.90
45983;DHT22;31711;47.158;7.346;2024-02-26T15:18:36;12.60;99.90
45983;DHT22;31711;47.158;7.346;2024-02-26T15:21:03;12.40;99.90
45983;DHT22;31711;47.158;7.346;2024-02-26T15:23:29;12.20;99.90
45983;DHT22;31711;47.158;7.346;2024-02-26T15:25:55;12.10;99.90
45983;DHT22;31711;47.158;7.346;2024-02-26T15:28:21;12.20;99.90
45983;DHT22;31711;47.158;7.346;2024-02-26T15:30:47;12.10;99.90
45983;DHT22;31711;47.158;7.346;2024-02-26T15:33:13;12.00;99.90
45983;DHT22;31711;47.158;7.346;2024-02-26T15:35:40;12.00;99.90
45983;DHT22;31711;47.158;7.346;2024-02-26T15:38:08;11.80;99.90
45983;DHT22;31711;47.158;7.346;2024-02-26T15:40:33;11.70;99.90